sensor_id;sensor_type;location;lat;lon;timestamp;temperature;humidity
51801;DHT22;37855;53.204;6.568;2023-08-31T00:02:10;12.40;76.00
51801;DHT22;37855;53.204;6.568;2023-08-31T00:04:36;12.40;76.10
51801;DHT22;37855;53.204;6.568;2023-08-31T00:07:02;12.40;76.10
51801;DHT22;37855;53.204;6.568;2023-08-31T00:09:28;12.40;76.20
51801;DHT22;37855;53.204;6.568;2023-08-31T00:11:55;12.40;76.20
51801;DHT22;37855;53.204;6.568;2023-08-31T00:14:22;12.40;76.20
51801;DHT22;37855;53.204;6.568;2023-08-31T00:16:48;12.40;76.10
51801;DHT22;37855;53.204;6.568;2023-08-31T00:19:15;12.40;76.10
51801;DHT22;37855;53.204;6.568;2023-08-31T00:21:41;12.40;76.20
51801;DHT22;37855;53.204;6.568;2023-08-31T00:24:07;12.40;76.20
51801;DHT22;37855;53.204;6.568;2023-08-31T00:26:33;12.40;76.30
51801;DHT22;37855;53.204;6.568;2023-08-31T00:29:00;12.40;76.40
51801;DHT22;37855;53.204;6.568;2023-08-31T00:31:25;12.40;76.50
51801;DHT22;37855;53.204;6.568;2023-08-31T00:33:53;12.30;76.50
51801;DHT22;37855;53.204;6.568;2023-08-31T00:36:18;12.30;76.70
51801;DHT22;37855;53.204;6.568;2023-08-31T00:38:44;12.40;76.80
51801;DHT22;37855;53.204;6.568;2023-08-31T00:41:12;12.40;76.90
51801;DHT22;37855;53.204;6.568;2023-08-31T00:43:38;12.40;77.00
51801;DHT22;37855;53.204;6.568;2023-08-31T00:46:03;12.30;77.00
51801;DHT22;37855;53.204;6.568;2023-08-31T00:48:29;12.30;77.10
51801;DHT22;37855;53.204;6.568;2023-08-31T00:50:55;12.30;77.10
51801;DHT22;37855;53.204;6.568;2023-08-31T00:53:21;12.30;77.10
51801;DHT22;37855;53.204;6.568;2023-08-31T00:55:47;12.30;77.20
51801;DHT22;37855;53.204;6.568;2023-08-31T00:58:13;12.20;77.30
51801;DHT22;37855;53.204;6.568;2023-08-31T01:10:10;12.20;77.40
51801;DHT22;37855;53.204;6.568;2023-08-31T01:12:55;12.20;77.30
51801;DHT22;37855;53.204;6.568;2023-08-31T01:15:24;12.20;77.40
51801;DHT22;37855;53.204;6.568;2023-08-31T01:17:55;12.10;77.40
51801;DHT22;37855;53.204;6.568;2023-08-31T01:20:45;12.10;77.50
51801;DHT22;37855;53.204;6.568;2023-08-31T01:23:19;12.10;77.60
51801;DHT22;37855;53.204;6.568;2023-08-31T01:25:46;12.00;77.50
51801;DHT22;37855;53.204;6.568;2023-08-31T01:28:13;12.00;77.60
51801;DHT22;37855;53.204;6.568;2023-08-31T01:30:40;12.00;77.70
51801;DHT22;37855;53.204;6.568;2023-08-31T01:33:06;12.00;77.80
51801;DHT22;37855;53.204;6.568;2023-08-31T01:35:40;12.00;77.80
51801;DHT22;37855;53.204;6.568;2023-08-31T01:38:10;12.00;77.90
51801;DHT22;37855;53.204;6.568;2023-08-31T01:40:56;12.00;78.00
51801;DHT22;37855;53.204;6.568;2023-08-31T01:43:26;11.90;78.00
51801;DHT22;37855;53.204;6.568;2023-08-31T01:45:53;11.90;78.10
51801;DHT22;37855;53.204;6.568;2023-08-31T01:48:19;11.90;78.10
51801;DHT22;37855;53.204;6.568;2023-08-31T01:50:45;11.90;78.10
51801;DHT22;37855;53.204;6.568;2023-08-31T01:53:10;11.90;78.20
51801;DHT22;37855;53.204;6.568;2023-08-31T01:55:37;11.80;78.20
51801;DHT22;37855;53.204;6.568;2023-08-31T01:58:03;11.80;78.30
51801;DHT22;37855;53.204;6.568;2023-08-31T02:00:28;11.80;78.30
51801;DHT22;37855;53.204;6.568;2023-08-31T02:02:54;11.80;78.20
51801;DHT22;37855;53.204;6.568;2023-08-31T02:05:20;11.80;78.20
51801;DHT22;37855;53.204;6.568;2023-08-31T02:07:45;11.80;78.20
51801;DHT22;37855;53.204;6.568;2023-08-31T02:10:11;11.80;78.30
51801;DHT22;37855;53.204;6.568;2023-08-31T02:12:37;11.80;78.30
51801;DHT22;37855;53.204;6.568;2023-08-31T02:15:05;11.80;78.30
51801;DHT22;37855;53.204;6.568;2023-08-31T02:17:32;11.80;78.30
51801;DHT22;37855;53.204;6.568;2023-08-31T02:19:57;11.80;78.30
51801;DHT22;37855;53.204;6.568;2023-08-31T02:22:24;11.80;78.30
51801;DHT22;37855;53.204;6.568;2023-08-31T02:24:49;11.80;78.40
51801;DHT22;37855;53.204;6.568;2023-08-31T02:27:15;11.70;78.40
51801;DHT22;37855;53.204;6.568;2023-08-31T02:29:41;11.80;78.50
51801;DHT22;37855;53.204;6.568;2023-08-31T02:32:07;11.80;78.50
51801;DHT22;37855;53.204;6.568;2023-08-31T02:34:37;11.80;78.50
51801;DHT22;37855;53.204;6.568;2023-08-31T02:37:03;11.80;78.50
51801;DHT22;37855;53.204;6.568;2023-08-31T02:39:28;11.70;78.50
51801;DHT22;37855;53.204;6.568;2023-08-31T02:41:54;11.80;78.50
51801;DHT22;37855;53.204;6.568;2023-08-31T02:44:20;11.80;78.40
51801;DHT22;37855;53.204;6.568;2023-08-31T02:46:46;11.70;78.60
51801;DHT22;37855;53.204;6.568;2023-08-31T02:49:11;11.70;78.40
51801;DHT22;37855;53.204;6.568;2023-08-31T02:51:37;11.70;78.50
51801;DHT22;37855;53.204;6.568;2023-08-31T02:54:03;11.70;78.50
51801;DHT22;37855;53.204;6.568;2023-08-31T02:56:29;11.70;78.50
51801;DHT22;37855;53.204;6.568;2023-08-31T02:58:54;11.70;78.50
51801;DHT22;37855;53.204;6.568;2023-08-31T03:01:20;11.70;78.50
51801;DHT22;37855;53.204;6.568;2023-08-31T03:03:46;11.70;78.50
51801;DHT22;37855;53.204;6.568;2023-08-31T03:06:12;11.70;78.40
51801;DHT22;37855;53.204;6.568;2023-08-31T03:08:38;11.70;78.40
51801;DHT22;37855;53.204;6.568;2023-08-31T03:11:05;11.70;78.40
51801;DHT22;37855;53.204;6.568;2023-08-31T03:13:31;11.70;78.50
51801;DHT22;37855;53.204;6.568;2023-08-31T03:15:57;11.70;78.40
51801;DHT22;37855;53.204;6.568;2023-08-31T03:18:24;11.70;78.40
51801;DHT22;37855;53.204;6.568;2023-08-31T03:20:50;11.70;78.30
51801;DHT22;37855;53.204;6.568;2023-08-31T03:23:16;11.70;78.30
51801;DHT22;37855;53.204;6.568;2023-08-31T03:25:42;11.70;78.30
51801;DHT22;37855;53.204;6.568;2023-08-31T03:28:07;11.70;78.30
51801;DHT22;37855;53.204;6.568;2023-08-31T03:30:33;11.70;78.20
51801;DHT22;37855;53.204;6.568;2023-08-31T03:33:02;11.70;78.20
51801;DHT22;37855;53.204;6.568;2023-08-31T03:35:34;11.70;78.20
51801;DHT22;37855;53.204;6.568;2023-08-31T03:38:01;11.70;78.20
51801;DHT22;37855;53.204;6.568;2023-08-31T03:40:26;11.70;78.10
51801;DHT22;37855;53.204;6.568;2023-08-31T03:42:52;11.80;78.10
51801;DHT22;37855;53.204;6.568;2023-08-31T03:45:19;11.80;78.10
51801;DHT22;37855;53.204;6.568;2023-08-31T03:47:45;11.80;78.10
51801;DHT22;37855;53.204;6.568;2023-08-31T03:50:11;11.80;78.10
51801;DHT22;37855;53.204;6.568;2023-08-31T03:52:37;11.90;78.10
51801;DHT22;37855;53.204;6.568;2023-08-31T03:55:02;11.90;78.10
51801;DHT22;37855;53.204;6.568;2023-08-31T03:57:28;11.80;78.10
51801;DHT22;37855;53.204;6.568;2023-08-31T03:59:54;11.80;78.20
51801;DHT22;37855;53.204;6.568;2023-08-31T04:02:20;11.80;78.20
51801;DHT22;37855;53.204;6.568;2023-08-31T04:04:45;11.80;78.20
51801;DHT22;37855;53.204;6.568;2023-08-31T04:07:11;11.80;78.30
51801;DHT22;37855;53.204;6.568;2023-08-31T04:09:36;11.80;78.30
51801;DHT22;37855;53.204;6.568;2023-08-31T04:12:02;11.70;78.40
51801;DHT22;37855;53.204;6.568;2023-08-31T04:14:28;11.70;78.30
51801;DHT22;37855;53.204;6.568;2023-08-31T04:16:57;11.70;78.50
51801;DHT22;37855;53.204;6.568;2023-08-31T04:19:23;11.70;78.40
51801;DHT22;37855;53.204;6.568;2023-08-31T04:21:48;11.70;78.50
51801;DHT22;37855;53.204;6.568;2023-08-31T04:24:17;11.70;78.50
51801;DHT22;37855;53.204;6.568;2023-08-31T04:26:43;11.70;78.50
51801;DHT22;37855;53.204;6.568;2023-08-31T04:29:10;11.70;78.60
51801;DHT22;37855;53.204;6.568;2023-08-31T04:31:36;11.70;78.60
51801;DHT22;37855;53.204;6.568;2023-08-31T04:34:01;11.60;78.70
51801;DHT22;37855;53.204;6.568;2023-08-31T04:36:27;11.60;78.70
51801;DHT22;37855;53.204;6.568;2023-08-31T04:38:53;11.60;78.80
51801;DHT22;37855;53.204;6.568;2023-08-31T04:41:19;11.60;79.00
51801;DHT22;37855;53.204;6.568;2023-08-31T04:43:44;11.50;78.90
51801;DHT22;37855;53.204;6.568;2023-08-31T04:46:13;11.50;79.00
51801;DHT22;37855;53.204;6.568;2023-08-31T04:48:39;11.50;79.00
51801;DHT22;37855;53.204;6.568;2023-08-31T04:51:05;11.50;79.10
51801;DHT22;37855;53.204;6.568;2023-08-31T04:53:31;11.50;79.10
51801;DHT22;37855;53.204;6.568;2023-08-31T04:55:57;11.40;79.40
51801;DHT22;37855;53.204;6.568;2023-08-31T04:58:23;11.40;79.30
51801;DHT22;37855;53.204;6.568;2023-08-31T05:00:48;11.40;79.40
51801;DHT22;37855;53.204;6.568;2023-08-31T05:03:14;11.40;79.30
51801;DHT22;37855;53.204;6.568;2023-08-31T05:05:40;11.40;79.40
51801;DHT22;37855;53.204;6.568;2023-08-31T05:08:08;11.40;79.50
51801;DHT22;37855;53.204;6.568;2023-08-31T05:10:33;11.40;79.50
51801;DHT22;37855;53.204;6.568;2023-08-31T05:12:59;11.40;80.00
51801;DHT22;37855;53.204;6.568;2023-08-31T05:15:25;11.40;79.70
51801;DHT22;37855;53.204;6.568;2023-08-31T05:17:53;11.40;80.00
51801;DHT22;37855;53.204;6.568;2023-08-31T05:20:19;11.40;79.90
51801;DHT22;37855;53.204;6.568;2023-08-31T05:22:46;11.40;79.90
51801;DHT22;37855;53.204;6.568;2023-08-31T05:25:12;11.30;79.90
51801;DHT22;37855;53.204;6.568;2023-08-31T05:27:39;11.40;79.90
51801;DHT22;37855;53.204;6.568;2023-08-31T05:30:08;11.40;80.00
51801;DHT22;37855;53.204;6.568;2023-08-31T05:32:34;11.50;80.00
51801;DHT22;37855;53.204;6.568;2023-08-31T05:35:00;11.50;80.00
51801;DHT22;37855;53.204;6.568;2023-08-31T05:37:33;11.50;80.10
51801;DHT22;37855;53.204;6.568;2023-08-31T05:40:01;11.60;80.20
51801;DHT22;37855;53.204;6.568;2023-08-31T05:42:30;11.60;80.20
51801;DHT22;37855;53.204;6.568;2023-08-31T05:44:55;11.70;80.10
51801;DHT22;37855;53.204;6.568;2023-08-31T05:47:21;11.70;80.20
51801;DHT22;37855;53.204;6.568;2023-08-31T05:49:50;11.70;80.00
51801;DHT22;37855;53.204;6.568;2023-08-31T05:52:16;11.80;80.20
51801;DHT22;37855;53.204;6.568;2023-08-31T05:54:42;11.80;80.00
51801;DHT22;37855;53.204;6.568;2023-08-31T05:57:07;11.90;80.20
51801;DHT22;37855;53.204;6.568;2023-08-31T05:59:34;12.00;79.90
51801;DHT22;37855;53.204;6.568;2023-08-31T06:02:00;12.00;79.90
51801;DHT22;37855;53.204;6.568;2023-08-31T06:04:26;12.10;79.70
51801;DHT22;37855;53.204;6.568;2023-08-31T06:06:51;12.20;79.70
51801;DHT22;37855;53.204;6.568;2023-08-31T06:09:19;12.20;79.60
51801;DHT22;37855;53.204;6.568;2023-08-31T06:11:45;12.30;79.60
51801;DHT22;37855;53.204;6.568;2023-08-31T06:14:11;12.50;79.40
51801;DHT22;37855;53.204;6.568;2023-08-31T06:16:37;12.60;79.40
51801;DHT22;37855;53.204;6.568;2023-08-31T06:19:02;12.60;79.20
51801;DHT22;37855;53.204;6.568;2023-08-31T06:21:28;12.70;79.10
51801;DHT22;37855;53.204;6.568;2023-08-31T06:23:54;12.80;79.00
51801;DHT22;37855;53.204;6.568;2023-08-31T06:26:20;12.80;79.00
51801;DHT22;37855;53.204;6.568;2023-08-31T06:28:45;12.80;79.10
51801;DHT22;37855;53.204;6.568;2023-08-31T06:31:11;12.80;79.00
51801;DHT22;37855;53.204;6.568;2023-08-31T06:33:37;12.90;78.90
51801;DHT22;37855;53.204;6.568;2023-08-31T06:36:03;12.90;78.80
51801;DHT22;37855;53.204;6.568;2023-08-31T06:38:28;13.00;78.80
51801;DHT22;37855;53.204;6.568;2023-08-31T06:40:54;13.10;78.70
51801;DHT22;37855;53.204;6.568;2023-08-31T06:43:24;13.20;78.60
51801;DHT22;37855;53.204;6.568;2023-08-31T06:45:52;13.30;78.40
51801;DHT22;37855;53.204;6.568;2023-08-31T06:48:18;13.30;78.20
51801;DHT22;37855;53.204;6.568;2023-08-31T06:50:44;13.40;78.20
51801;DHT22;37855;53.204;6.568;2023-08-31T06:53:09;13.40;78.10
51801;DHT22;37855;53.204;6.568;2023-08-31T06:55:35;13.50;77.90
51801;DHT22;37855;53.204;6.568;2023-08-31T06:58:01;13.60;77.80
51801;DHT22;37855;53.204;6.568;2023-08-31T07:00:29;13.70;77.60
51801;DHT22;37855;53.204;6.568;2023-08-31T07:02:57;13.80;77.30
51801;DHT22;37855;53.204;6.568;2023-08-31T07:05:25;13.90;77.10
51801;DHT22;37855;53.204;6.568;2023-08-31T07:07:54;14.00;76.80
51801;DHT22;37855;53.204;6.568;2023-08-31T07:10:21;14.10;76.50
51801;DHT22;37855;53.204;6.568;2023-08-31T07:12:46;14.10;76.30
51801;DHT22;37855;53.204;6.568;2023-08-31T07:15:12;14.20;76.20
51801;DHT22;37855;53.204;6.568;2023-08-31T07:17:38;14.30;76.10
51801;DHT22;37855;53.204;6.568;2023-08-31T07:20:04;14.40;76.00
51801;DHT22;37855;53.204;6.568;2023-08-31T07:22:36;14.50;76.10
51801;DHT22;37855;53.204;6.568;2023-08-31T07:25:03;14.50;75.90
51801;DHT22;37855;53.204;6.568;2023-08-31T07:27:30;14.60;75.80
51801;DHT22;37855;53.204;6.568;2023-08-31T07:29:55;14.70;75.30
51801;DHT22;37855;53.204;6.568;2023-08-31T07:32:21;14.80;75.30
51801;DHT22;37855;53.204;6.568;2023-08-31T07:34:48;14.90;75.30
51801;DHT22;37855;53.204;6.568;2023-08-31T07:37:14;15.00;75.10
51801;DHT22;37855;53.204;6.568;2023-08-31T07:39:40;15.10;74.90
51801;DHT22;37855;53.204;6.568;2023-08-31T07:42:07;15.30;75.00
51801;DHT22;37855;53.204;6.568;2023-08-31T07:44:33;15.50;74.70
51801;DHT22;37855;53.204;6.568;2023-08-31T07:46:58;15.80;74.20
51801;DHT22;37855;53.204;6.568;2023-08-31T07:49:24;16.10;73.60
51801;DHT22;37855;53.204;6.568;2023-08-31T07:51:51;16.30;72.90
51801;DHT22;37855;53.204;6.568;2023-08-31T07:54:22;16.40;72.80
51801;DHT22;37855;53.204;6.568;2023-08-31T07:56:49;16.60;72.20
51801;DHT22;37855;53.204;6.568;2023-08-31T07:59:16;16.70;72.30
51801;DHT22;37855;53.204;6.568;2023-08-31T08:01:55;16.80;71.30
51801;DHT22;37855;53.204;6.568;2023-08-31T08:04:20;16.90;71.00
51801;DHT22;37855;53.204;6.568;2023-08-31T08:06:48;17.00;70.60
51801;DHT22;37855;53.204;6.568;2023-08-31T08:09:14;17.10;70.50
51801;DHT22;37855;53.204;6.568;2023-08-31T08:11:42;17.10;69.70
51801;DHT22;37855;53.204;6.568;2023-08-31T08:14:10;17.10;68.80
51801;DHT22;37855;53.204;6.568;2023-08-31T08:16:36;17.10;68.70
51801;DHT22;37855;53.204;6.568;2023-08-31T08:19:02;17.10;68.50
51801;DHT22;37855;53.204;6.568;2023-08-31T08:21:28;17.10;68.40
51801;DHT22;37855;53.204;6.568;2023-08-31T08:23:57;17.20;67.40
51801;DHT22;37855;53.204;6.568;2023-08-31T08:26:22;17.20;68.10
51801;DHT22;37855;53.204;6.568;2023-08-31T08:28:48;17.30;67.60
51801;DHT22;37855;53.204;6.568;2023-08-31T08:31:14;17.30;67.40
51801;DHT22;37855;53.204;6.568;2023-08-31T08:33:39;17.30;67.30
51801;DHT22;37855;53.204;6.568;2023-08-31T08:36:06;17.40;67.20
51801;DHT22;37855;53.204;6.568;2023-08-31T08:38:31;17.50;66.80
51801;DHT22;37855;53.204;6.568;2023-08-31T08:40:57;17.50;66.30
51801;DHT22;37855;53.204;6.568;2023-08-31T08:43:26;17.60;65.70
51801;DHT22;37855;53.204;6.568;2023-08-31T08:45:54;17.50;65.60
51801;DHT22;37855;53.204;6.568;2023-08-31T08:48:20;17.50;66.10
51801;DHT22;37855;53.204;6.568;2023-08-31T08:50:46;17.60;66.10
51801;DHT22;37855;53.204;6.568;2023-08-31T08:53:13;17.60;66.10
51801;DHT22;37855;53.204;6.568;2023-08-31T08:55:41;17.70;66.30
51801;DHT22;37855;53.204;6.568;2023-08-31T08:58:06;17.80;66.00
51801;DHT22;37855;53.204;6.568;2023-08-31T09:00:33;17.80;66.10
51801;DHT22;37855;53.204;6.568;2023-08-31T09:03:00;18.00;66.10
51801;DHT22;37855;53.204;6.568;2023-08-31T09:05:34;18.10;66.00
51801;DHT22;37855;53.204;6.568;2023-08-31T09:08:04;18.20;65.40
51801;DHT22;37855;53.204;6.568;2023-08-31T09:10:35;18.10;63.90
51801;DHT22;37855;53.204;6.568;2023-08-31T09:13:01;17.90;64.60
51801;DHT22;37855;53.204;6.568;2023-08-31T09:15:45;17.60;64.50
51801;DHT22;37855;53.204;6.568;2023-08-31T09:18:22;17.30;64.70
51801;DHT22;37855;53.204;6.568;2023-08-31T09:20:48;16.90;65.30
51801;DHT22;37855;53.204;6.568;2023-08-31T09:23:15;16.70;65.50
51801;DHT22;37855;53.204;6.568;2023-08-31T09:25:50;16.70;66.20
51801;DHT22;37855;53.204;6.568;2023-08-31T09:28:23;16.70;66.80
51801;DHT22;37855;53.204;6.568;2023-08-31T09:30:50;16.70;66.80
51801;DHT22;37855;53.204;6.568;2023-08-31T09:33:19;16.80;67.00
51801;DHT22;37855;53.204;6.568;2023-08-31T09:35:53;16.90;67.50
51801;DHT22;37855;53.204;6.568;2023-08-31T09:38:19;17.00;68.00
51801;DHT22;37855;53.204;6.568;2023-08-31T09:40:46;17.10;67.80
51801;DHT22;37855;53.204;6.568;2023-08-31T09:43:12;17.30;67.60
51801;DHT22;37855;53.204;6.568;2023-08-31T09:45:38;17.40;67.60
51801;DHT22;37855;53.204;6.568;2023-08-31T09:48:04;17.50;67.50
51801;DHT22;37855;53.204;6.568;2023-08-31T09:50:33;17.60;67.50
51801;DHT22;37855;53.204;6.568;2023-08-31T09:53:02;17.60;67.90
51801;DHT22;37855;53.204;6.568;2023-08-31T09:55:30;17.60;68.30
51801;DHT22;37855;53.204;6.568;2023-08-31T09:57:57;17.50;68.40
51801;DHT22;37855;53.204;6.568;2023-08-31T10:00:25;17.50;68.60
51801;DHT22;37855;53.204;6.568;2023-08-31T10:02:53;17.50;68.80
51801;DHT22;37855;53.204;6.568;2023-08-31T10:05:21;17.40;69.00
51801;DHT22;37855;53.204;6.568;2023-08-31T10:07:47;17.50;69.50
51801;DHT22;37855;53.204;6.568;2023-08-31T10:10:14;17.60;69.10
51801;DHT22;37855;53.204;6.568;2023-08-31T10:12:40;17.60;68.70
51801;DHT22;37855;53.204;6.568;2023-08-31T10:15:06;17.50;68.50
51801;DHT22;37855;53.204;6.568;2023-08-31T10:17:32;17.40;68.20
51801;DHT22;37855;53.204;6.568;2023-08-31T10:19:59;17.20;67.70
51801;DHT22;37855;53.204;6.568;2023-08-31T10:22:25;17.10;67.40
51801;DHT22;37855;53.204;6.568;2023-08-31T10:24:59;16.90;67.10
51801;DHT22;37855;53.204;6.568;2023-08-31T10:27:25;16.70;67.20
51801;DHT22;37855;53.204;6.568;2023-08-31T10:29:51;16.60;67.70
51801;DHT22;37855;53.204;6.568;2023-08-31T10:32:19;16.60;67.90
51801;DHT22;37855;53.204;6.568;2023-08-31T10:35:04;16.70;68.10
51801;DHT22;37855;53.204;6.568;2023-08-31T10:37:30;16.90;68.00
51801;DHT22;37855;53.204;6.568;2023-08-31T10:40:11;17.10;67.90
51801;DHT22;37855;53.204;6.568;2023-08-31T10:42:45;17.30;67.40
51801;DHT22;37855;53.204;6.568;2023-08-31T10:45:13;17.50;67.10
51801;DHT22;37855;53.204;6.568;2023-08-31T10:47:42;17.60;67.00
51801;DHT22;37855;53.204;6.568;2023-08-31T10:50:20;17.80;67.00
51801;DHT22;37855;53.204;6.568;2023-08-31T10:52:46;17.80;66.20
51801;DHT22;37855;53.204;6.568;2023-08-31T10:55:12;17.70;65.80
51801;DHT22;37855;53.204;6.568;2023-08-31T10:57:40;17.60;65.90
51801;DHT22;37855;53.204;6.568;2023-08-31T11:00:08;17.40;65.90
51801;DHT22;37855;53.204;6.568;2023-08-31T11:02:44;17.30;66.10
51801;DHT22;37855;53.204;6.568;2023-08-31T11:05:14;17.10;66.80
51801;DHT22;37855;53.204;6.568;2023-08-31T11:07:41;17.10;67.10
51801;DHT22;37855;53.204;6.568;2023-08-31T11:10:24;17.00;67.20
51801;DHT22;37855;53.204;6.568;2023-08-31T11:12:51;17.20;67.30
51801;DHT22;37855;53.204;6.568;2023-08-31T11:15:23;17.30;67.30
51801;DHT22;37855;53.204;6.568;2023-08-31T11:17:50;17.50;67.10
51801;DHT22;37855;53.204;6.568;2023-08-31T11:20:18;17.70;66.90
51801;DHT22;37855;53.204;6.568;2023-08-31T11:22:46;17.90;67.00
51801;DHT22;37855;53.204;6.568;2023-08-31T11:25:13;18.10;66.90
51801;DHT22;37855;53.204;6.568;2023-08-31T11:27:39;18.20;66.60
51801;DHT22;37855;53.204;6.568;2023-08-31T11:30:26;18.20;66.20
51801;DHT22;37855;53.204;6.568;2023-08-31T11:32:52;18.10;65.90
51801;DHT22;37855;53.204;6.568;2023-08-31T11:35:20;18.10;66.10
51801;DHT22;37855;53.204;6.568;2023-08-31T11:37:50;18.10;66.10
51801;DHT22;37855;53.204;6.568;2023-08-31T11:40:17;18.10;65.50
51801;DHT22;37855;53.204;6.568;2023-08-31T11:42:43;18.00;65.30
51801;DHT22;37855;53.204;6.568;2023-08-31T11:45:11;17.90;66.00
51801;DHT22;37855;53.204;6.568;2023-08-31T11:47:38;17.90;66.20
51801;DHT22;37855;53.204;6.568;2023-08-31T11:50:05;18.00;66.30
51801;DHT22;37855;53.204;6.568;2023-08-31T11:52:32;18.20;65.80
51801;DHT22;37855;53.204;6.568;2023-08-31T11:54:58;18.30;64.90
51801;DHT22;37855;53.204;6.568;2023-08-31T11:57:27;18.30;61.80
51801;DHT22;37855;53.204;6.568;2023-08-31T11:59:54;18.00;62.20
51801;DHT22;37855;53.204;6.568;2023-08-31T12:02:21;17.70;64.70
51801;DHT22;37855;53.204;6.568;2023-08-31T12:04:48;17.40;65.70
51801;DHT22;37855;53.204;6.568;2023-08-31T12:07:18;17.20;67.10
51801;DHT22;37855;53.204;6.568;2023-08-31T12:09:45;17.20;67.80
51801;DHT22;37855;53.204;6.568;2023-08-31T12:12:13;17.30;68.00
51801;DHT22;37855;53.204;6.568;2023-08-31T12:14:39;17.40;68.00
51801;DHT22;37855;53.204;6.568;2023-08-31T12:17:06;17.60;68.40
51801;DHT22;37855;53.204;6.568;2023-08-31T12:19:35;17.60;67.30
51801;DHT22;37855;53.204;6.568;2023-08-31T12:22:01;17.50;67.30
51801;DHT22;37855;53.204;6.568;2023-08-31T12:24:27;17.40;67.00
51801;DHT22;37855;53.204;6.568;2023-08-31T12:26:53;17.40;65.40
51801;DHT22;37855;53.204;6.568;2023-08-31T12:29:20;17.30;65.10
51801;DHT22;37855;53.204;6.568;2023-08-31T12:31:46;17.20;64.60
51801;DHT22;37855;53.204;6.568;2023-08-31T12:34:11;17.20;64.90
51801;DHT22;37855;53.204;6.568;2023-08-31T12:36:37;17.20;65.30
51801;DHT22;37855;53.204;6.568;2023-08-31T12:39:06;17.20;65.70
51801;DHT22;37855;53.204;6.568;2023-08-31T12:41:33;17.20;66.00
51801;DHT22;37855;53.204;6.568;2023-08-31T12:43:59;17.20;66.10
51801;DHT22;37855;53.204;6.568;2023-08-31T12:46:24;17.30;65.70
51801;DHT22;37855;53.204;6.568;2023-08-31T12:48:50;17.30;66.00
51801;DHT22;37855;53.204;6.568;2023-08-31T12:51:18;17.30;66.10
51801;DHT22;37855;53.204;6.568;2023-08-31T12:53:44;17.50;65.90
51801;DHT22;37855;53.204;6.568;2023-08-31T12:56:10;17.70;65.50
51801;DHT22;37855;53.204;6.568;2023-08-31T12:58:36;17.90;65.20
51801;DHT22;37855;53.204;6.568;2023-08-31T13:01:02;18.20;64.30
51801;DHT22;37855;53.204;6.568;2023-08-31T13:03:27;18.40;63.80
51801;DHT22;37855;53.204;6.568;2023-08-31T13:05:54;18.50;63.30
51801;DHT22;37855;53.204;6.568;2023-08-31T13:08:21;18.60;63.10
51801;DHT22;37855;53.204;6.568;2023-08-31T13:10:54;18.70;61.10
51801;DHT22;37855;53.204;6.568;2023-08-31T13:13:21;18.80;60.70
51801;DHT22;37855;53.204;6.568;2023-08-31T13:15:47;18.90;59.80
51801;DHT22;37855;53.204;6.568;2023-08-31T13:18:16;19.00;59.30
51801;DHT22;37855;53.204;6.568;2023-08-31T13:20:52;18.90;58.20
51801;DHT22;37855;53.204;6.568;2023-08-31T13:23:18;18.80;58.80
51801;DHT22;37855;53.204;6.568;2023-08-31T13:25:45;18.60;59.50
51801;DHT22;37855;53.204;6.568;2023-08-31T13:28:10;18.50;59.50
51801;DHT22;37855;53.204;6.568;2023-08-31T13:30:36;18.40;59.90
51801;DHT22;37855;53.204;6.568;2023-08-31T13:33:02;18.40;59.90
51801;DHT22;37855;53.204;6.568;2023-08-31T13:35:30;18.50;59.30
51801;DHT22;37855;53.204;6.568;2023-08-31T13:37:57;18.60;59.40
51801;DHT22;37855;53.204;6.568;2023-08-31T13:40:22;18.80;58.80
51801;DHT22;37855;53.204;6.568;2023-08-31T13:42:59;18.90;59.10
51801;DHT22;37855;53.204;6.568;2023-08-31T13:45:31;18.90;59.60
51801;DHT22;37855;53.204;6.568;2023-08-31T13:48:00;18.80;60.60
51801;DHT22;37855;53.204;6.568;2023-08-31T13:50:27;18.60;60.90
51801;DHT22;37855;53.204;6.568;2023-08-31T13:52:53;18.60;60.90
51801;DHT22;37855;53.204;6.568;2023-08-31T13:55:19;18.70;61.00
51801;DHT22;37855;53.204;6.568;2023-08-31T13:57:45;18.80;60.50
51801;DHT22;37855;53.204;6.568;2023-08-31T14:00:15;18.90;59.00
51801;DHT22;37855;53.204;6.568;2023-08-31T14:02:42;19.00;58.20
51801;DHT22;37855;53.204;6.568;2023-08-31T14:05:09;19.10;57.90
51801;DHT22;37855;53.204;6.568;2023-08-31T14:07:39;19.20;58.10
51801;DHT22;37855;53.204;6.568;2023-08-31T14:10:05;19.20;58.80
51801;DHT22;37855;53.204;6.568;2023-08-31T14:12:32;19.10;59.80
51801;DHT22;37855;53.204;6.568;2023-08-31T14:14:58;18.70;62.00
51801;DHT22;37855;53.204;6.568;2023-08-31T14:17:26;18.30;63.50
51801;DHT22;37855;53.204;6.568;2023-08-31T14:19:54;18.00;64.90
51801;DHT22;37855;53.204;6.568;2023-08-31T14:22:20;17.70;66.00
51801;DHT22;37855;53.204;6.568;2023-08-31T14:24:46;17.60;66.70
51801;DHT22;37855;53.204;6.568;2023-08-31T14:27:12;17.40;67.60
51801;DHT22;37855;53.204;6.568;2023-08-31T14:29:40;17.20;66.70
51801;DHT22;37855;53.204;6.568;2023-08-31T14:32:06;17.20;66.30
51801;DHT22;37855;53.204;6.568;2023-08-31T14:34:32;17.10;67.80
51801;DHT22;37855;53.204;6.568;2023-08-31T14:36:58;17.00;68.80
51801;DHT22;37855;53.204;6.568;2023-08-31T14:39:26;16.90;69.20
51801;DHT22;37855;53.204;6.568;2023-08-31T14:41:56;16.90;69.50
51801;DHT22;37855;53.204;6.568;2023-08-31T14:44:23;16.90;69.80
51801;DHT22;37855;53.204;6.568;2023-08-31T14:46:49;16.90;69.90
51801;DHT22;37855;53.204;6.568;2023-08-31T14:49:14;16.90;70.00
51801;DHT22;37855;53.204;6.568;2023-08-31T14:51:40;16.90;70.10
51801;DHT22;37855;53.204;6.568;2023-08-31T14:54:06;16.90;70.00
51801;DHT22;37855;53.204;6.568;2023-08-31T14:56:32;17.00;70.20
51801;DHT22;37855;53.204;6.568;2023-08-31T14:58:58;16.90;70.00
51801;DHT22;37855;53.204;6.568;2023-08-31T15:01:23;17.00;70.10
51801;DHT22;37855;53.204;6.568;2023-08-31T15:03:50;16.90;70.00
51801;DHT22;37855;53.204;6.568;2023-08-31T15:06:18;17.00;70.00
51801;DHT22;37855;53.204;6.568;2023-08-31T15:08:43;17.00;69.70
51801;DHT22;37855;53.204;6.568;2023-08-31T15:11:12;17.00;70.00
51801;DHT22;37855;53.204;6.568;2023-08-31T15:13:38;16.90;70.30
51801;DHT22;37855;53.204;6.568;2023-08-31T15:16:03;16.90;69.90
51801;DHT22;37855;53.204;6.568;2023-08-31T15:18:39;16.90;69.90
51801;DHT22;37855;53.204;6.568;2023-08-31T15:21:08;17.00;69.40
51801;DHT22;37855;53.204;6.568;2023-08-31T15:23:33;17.00;69.40
51801;DHT22;37855;53.204;6.568;2023-08-31T15:26:01;17.20;69.00
51801;DHT22;37855;53.204;6.568;2023-08-31T15:28:28;17.30;68.30
51801;DHT22;37855;53.204;6.568;2023-08-31T15:30:54;17.40;67.90
51801;DHT22;37855;53.204;6.568;2023-08-31T15:33:19;17.60;67.90
51801;DHT22;37855;53.204;6.568;2023-08-31T15:35:45;17.70;67.50
51801;DHT22;37855;53.204;6.568;2023-08-31T15:38:10;17.80;67.60
51801;DHT22;37855;53.204;6.568;2023-08-31T15:40:36;17.80;67.30